Burlington, Vermont
Current Conditions -  °F | °C
As of 1:54 AM on Wednesday 22 Oct 2014 (Local Time) from KBTV Reporting Station
Haze Haze  
Wind Chill:   Ceiling: 300
Heat Index:   Visibility: 6mi
Dew Point:   Wind: 10mph
Humidity: 90%   Direction: 330°NNW
Pressure: 30.1"   Gusts: NA
Location:  44.48°N, 73.21°W
Report Text: KBTV 220554Z 33009KT 6SM BR OVC003 08/07 A3010 RMK AO2 SLP195 60007 T00830067 10094 20083 51002 $
Loading
Personal Weather Stations






























Interactive Weather Map
Tropical Storm Tracking
New forecast layout! Learn more

10-Day Weather Forecast

Advertisements
Track Severe Weather on mobile